Observations for RONCHI LEGIONARI AB, Italy (LIPQ)

LIPQ 201950Z VRB02KT 2000 BR NSC 05/04 Q1026
LIPQ 201920Z 11003KT 2500 BR NSC 05/04 Q1025
LIPQ 201850Z 10004KT 3000 BR NSC 06/04 Q1025
LIPQ 201820Z 10001KT 3000 BR NSC 07/05 Q1025
LIPQ 201750Z 25003KT 3000 BR NSC 07/05 Q1025
LIPQ 201720Z 24003KT 3000 BR NSC 08/05 Q1025
LIPQ 201650Z 23004KT 3000 BR NSC 09/05 Q1024
LIPQ 201620Z 24005KT 4000 BR NSC 10/05 Q1024
LIPQ 201550Z 23006KT 4000 BR NSC 11/05 Q1024
LIPQ 201520Z 23006KT 4500 BR NSC 11/05 Q1024
LIPQ 201450Z 23006KT 5000 BR NSC 11/05 Q1024
LIPQ 201420Z 23005KT 5000 BR NSC 12/05 Q1024
LIPQ 201350Z 22003KT 160V270 5000 BR NSC 12/04 Q1024
LIPQ 201320Z 25003KT 210V320 5000 BR NSC 12/04 Q1024
LIPQ 201250Z 25003KT 140V300 5000 BR NSC 12/05 Q1024
LIPQ 201220Z 27004KT 220V300 5000 BR NSC 11/04 Q1024
LIPQ 201150Z 22004KT 190V270 5000 BR NSC 11/04 Q1025
LIPQ 201120Z VRB04KT 5000 BR NSC 11/04 Q1025
LIPQ 201050Z 32003KT 270V080 5000 BR NSC 11/04 Q1025
LIPQ 201020Z VRB03KT 5000 BR NSC 10/04 Q1025
LIPQ 200950Z VRB02KT 4000 BR NSC 10/04 Q1025
LIPQ 200920Z 32003KT 260V010 4000 BR SCT025 09/04 Q1025 
LIPQ 200850Z VRB02KT 4000 BR SCT020 09/05 Q1025 
LIPQ 200820Z VRB02KT 3000 BR SCT025 08/05 Q1025 
LIPQ 200750Z 02003KT 3000 BR BKN025 08/05 Q1024 
LIPQ 200720Z 35003KT 3000 BR OVC025 07/05 Q1024 
LIPQ 200650Z 03002KT 3000 BR OVC025 07/05 Q1024 
LIPQ 200620Z 02003KT 3000 BR OVC025 07/05 Q1023 
LIPQ 200550Z 02003KT 340V040 3000 BR OVC025 07/05 Q1023 
LIPQ 200520Z VRB02KT 3000 BR OVC025 07/05 Q1023 
LIPQ 200450Z AUTO VRB02KT 3100 BR OVC026/// 07/05 Q1023 
LIPQ 200450Z AUTO VRB02KT 3100 BR OVC026 07/05 Q1023
LIPQ 200420Z AUTO 01004KT 3000 BR OVC026/// 07/05 Q1023 
LIPQ 200420Z AUTO 01004KT 3000 BR OVC026 07/05 Q1023
LIPQ 200350Z AUTO 01003KT 2600 BR OVC025/// 06/05 Q1023 
LIPQ 200350Z AUTO 01003KT 2600 BR OVC025 06/05 Q1023
LIPQ 200320Z AUTO 03003KT 2900 BR OVC020/// 07/05 Q1023 
LIPQ 200320Z AUTO 03003KT 2900 BR OVC020 07/05 Q1023
LIPQ 200250Z AUTO 35001KT 2800 BR OVC020/// 07/05 Q1023 
LIPQ 200250Z AUTO 35001KT 2800 BR OVC020 07/05 Q1023
LIPQ 200220Z AUTO 35004KT 2800 BR OVC025/// 07/05 Q1023 
LIPQ 200220Z AUTO 35004KT 2800 BR OVC025 07/05 Q1023
LIPQ 200150Z AUTO 32003KT 2600 BR OVC025/// 07/05 Q1023 
LIPQ 200150Z AUTO 32003KT 2600 BR OVC025 07/05 Q1023
LIPQ 200120Z AUTO 33004KT 2700 BR OVC024/// 07/05 Q1023 
LIPQ 200120Z AUTO 33004KT 2700 BR OVC024 07/05 Q1023
LIPQ 200050Z AUTO 36003KT 300V020 2800 BR OVC024/// 07/05 Q1023 
LIPQ 200050Z AUTO 36003KT 300V020 2800 BR OVC024 07/05 Q1023
LIPQ 200020Z AUTO 33002KT 3100 BR OVC025/// 07/05 Q1023 
LIPQ 200020Z AUTO 33002KT 3100 BR OVC025 07/05 Q1023
LIPQ 192350Z AUTO 32002KT 3700 BR OVC024/// 07/05 Q1023 
LIPQ 192350Z AUTO 32002KT 3700 BR OVC024 07/05 Q1023
LIPQ 192320Z AUTO VRB01KT 4100 BR OVC025/// 08/05 Q1023 
LIPQ 192250Z 07005KT 3000 BR OVC025 08/05 Q1023 
LIPQ 192220Z 06003KT 3000 BR OVC025 07/05 Q1023 
LIPQ 192150Z 04003KT 3000 BR OVC020 08/05 Q1023 
LIPQ 192120Z 03003KT 3000 BR OVC020 07/05 Q1023 
LIPQ 192050Z 03004KT 010V070 3000 BR OVC015 07/05 Q1023 
LIPQ 192020Z VRB02KT 3000 BR OVC015 07/05 Q1024 
LIPQ 191950Z 02005KT 3000 BR OVC015 08/06 Q1023 
LIPQ 191920Z 01003KT 3000 BR OVC015 08/05 Q1023